Time;durP1;ratioP1;P1;durP2;ratioP2;P2;SDS_P1;SDS_P2;PMS_P1;PMS_P2;Temp;Humidity;BMP_temperature;BMP_pressure;BME280_temperature;BME280_humidity;BME280_pressure;Samples;Min_cycle;Max_cycle;Signal;HPM_P1;HPM_P2
2022/03/06 00:01:53;;;;;;;15.57;11.05;;;0.90;99.90;;;;;;5105371;28;20052;-62
2022/03/06 00:04:20;;;;;;;27.40;15.30;;;0.90;99.90;;;;;;5087579;28;20048;-62
2022/03/06 00:06:46;;;;;;;28.17;16.02;;;0.90;99.90;;;;;;5086623;28;20059;-62
2022/03/06 00:09:12;;;;;;;28.48;14.43;;;0.90;99.90;;;;;;5099540;28;20419;-62
2022/03/06 00:11:38;;;;;;;24.90;13.05;;;0.90;99.90;;;;;;5106559;28;20054;-61
2022/03/06 00:14:04;;;;;;;20.15;10.07;;;0.90;99.90;;;;;;5106867;28;20040;-62
2022/03/06 00:16:29;;;;;;;26.30;11.90;;;1.00;99.90;;;;;;5106808;28;20107;-62
2022/03/06 00:18:55;;;;;;;15.77;9.75;;;1.10;99.90;;;;;;5096062;28;20051;-62
2022/03/06 00:21:21;;;;;;;17.35;10.98;;;1.10;99.90;;;;;;5086040;28;20045;-62
2022/03/06 00:23:47;;;;;;;19.38;11.10;;;1.10;99.90;;;;;;5086429;28;20050;-62
2022/03/06 00:26:13;;;;;;;15.82;10.90;;;1.10;99.90;;;;;;5086137;28;20045;-62
2022/03/06 00:28:39;;;;;;;12.50;7.68;;;1.10;99.90;;;;;;5093652;28;20040;-62
2022/03/06 00:31:06;;;;;;;16.58;8.80;;;1.10;99.90;;;;;;5106099;28;20111;-62
2022/03/06 00:33:31;;;;;;;15.77;10.35;;;1.20;99.90;;;;;;5107046;28;20119;-62
2022/03/06 00:35:57;;;;;;;11.98;6.75;;;1.20;99.90;;;;;;5105758;28;20171;-62
2022/03/06 00:38:23;;;;;;;12.55;7.43;;;1.20;99.90;;;;;;5100567;28;20083;-62
2022/03/06 00:40:49;;;;;;;12.82;9.40;;;1.20;99.90;;;;;;5086113;28;20389;-62
2022/03/06 00:43:18;;;;;;;16.52;8.73;;;1.20;99.90;;;;;;5085809;28;20108;-62
2022/03/06 00:45:44;;;;;;;14.85;8.85;;;1.20;99.90;;;;;;5085919;28;20066;-62
2022/03/06 00:48:09;;;;;;;12.35;7.53;;;1.20;99.90;;;;;;5088770;28;20040;-62
2022/03/06 00:50:36;;;;;;;14.55;8.27;;;1.20;99.90;;;;;;5105969;28;20048;-62
2022/03/06 00:53:03;;;;;;;11.20;7.75;;;1.20;99.90;;;;;;5100815;28;20060;-62
2022/03/06 00:55:30;;;;;;;7.97;5.82;;;1.20;99.90;;;;;;5085915;28;20050;-62
2022/03/06 00:57:56;;;;;;;11.98;8.13;;;1.30;99.90;;;;;;5085307;28;20059;-62
2022/03/06 01:00:22;;;;;;;14.70;8.32;;;1.30;99.90;;;;;;5085753;28;20499;-62
2022/03/06 01:02:48;;;;;;;13.55;6.85;;;1.30;99.90;;;;;;5086988;28;20044;-62
2022/03/06 01:05:14;;;;;;;12.45;8.15;;;1.30;99.90;;;;;;5105877;28;20040;-62
2022/03/06 01:07:40;;;;;;;11.30;7.45;;;1.20;99.90;;;;;;5105342;28;20044;-62
2022/03/06 01:10:06;;;;;;;15.13;8.43;;;1.30;99.90;;;;;;5085624;28;20040;-62
2022/03/06 01:12:32;;;;;;;13.25;8.02;;;1.30;99.90;;;;;;5085268;28;20492;-62
2022/03/06 01:14:58;;;;;;;12.52;8.35;;;1.30;99.90;;;;;;5104478;28;20074;-61
2022/03/06 01:17:24;;;;;;;12.68;6.72;;;1.30;99.90;;;;;;5106041;28;20084;-61
2022/03/06 01:19:50;;;;;;;10.48;6.68;;;1.30;99.90;;;;;;5105526;28;20040;-62
2022/03/06 01:22:16;;;;;;;13.80;7.95;;;1.30;99.90;;;;;;5105092;28;20043;-62
2022/03/06 01:24:42;;;;;;;9.23;6.25;;;1.20;99.90;;;;;;5088282;28;20084;-62
2022/03/06 01:27:08;;;;;;;15.05;7.70;;;1.20;99.90;;;;;;5084827;28;20044;-62
2022/03/06 01:29:34;;;;;;;14.05;7.78;;;1.20;99.90;;;;;;5085066;28;20079;-62
2022/03/06 01:31:59;;;;;;;14.10;7.97;;;1.20;99.90;;;;;;5084885;28;20044;-62
2022/03/06 01:34:25;;;;;;;16.50;8.32;;;1.10;99.90;;;;;;5098895;28;20055;-62
2022/03/06 01:36:51;;;;;;;10.93;7.53;;;1.10;99.90;;;;;;5104715;28;20048;-62
2022/03/06 01:39:16;;;;;;;9.07;7.65;;;1.10;99.90;;;;;;5105082;28;20051;-62
2022/03/06 01:41:42;;;;;;;16.48;7.80;;;1.00;99.90;;;;;;5104727;28;20048;-62
2022/03/06 01:44:13;;;;;;;14.30;8.75;;;1.00;99.90;;;;;;5093324;28;20051;-62
2022/03/06 01:46:39;;;;;;;10.45;7.43;;;1.00;99.90;;;;;;5084633;28;20041;-62
2022/03/06 01:49:05;;;;;;;13.23;7.82;;;1.00;99.90;;;;;;5084981;28;20059;-62
2022/03/06 01:51:30;;;;;;;14.95;7.68;;;0.90;99.90;;;;;;5084159;28;20044;-62
2022/03/06 01:53:56;;;;;;;11.48;7.53;;;1.00;99.90;;;;;;5096604;28;20134;-62
2022/03/06 01:56:22;;;;;;;11.93;7.00;;;1.00;99.90;;;;;;5104667;28;20036;-63
2022/03/06 01:58:48;;;;;;;11.95;6.90;;;1.00;99.90;;;;;;5105096;28;20072;-62
2022/03/06 02:01:14;;;;;;;9.35;6.57;;;1.00;99.90;;;;;;5104997;28;20047;-62
2022/03/06 02:03:40;;;;;;;11.15;5.97;;;1.00;99.90;;;;;;5094990;28;20041;-62
2022/03/06 02:06:09;;;;;;;10.82;6.10;;;1.10;99.90;;;;;;5083844;28;20385;-62
2022/03/06 02:08:34;;;;;;;17.48;6.22;;;1.10;99.90;;;;;;5084348;28;20082;-62
2022/03/06 02:11:00;;;;;;;11.40;5.60;;;1.10;99.90;;;;;;5085735;28;20049;-62
2022/03/06 02:13:27;;;;;;;7.70;5.20;;;1.10;99.90;;;;;;5084084;28;20546;-62
2022/03/06 02:15:53;;;;;;;10.65;5.05;;;1.10;99.90;;;;;;5116956;28;20052;-62
2022/03/06 02:18:19;;;;;;;10.18;5.78;;;1.10;99.90;;;;;;5084342;28;20052;-62
2022/03/06 02:20:47;;;;;;;10.60;6.00;;;1.10;99.90;;;;;;5094833;28;20050;-62
2022/03/06 02:23:13;;;;;;;7.93;4.90;;;1.10;99.90;;;;;;5103256;28;20092;-62
2022/03/06 02:25:39;;;;;;;9.05;4.80;;;1.10;99.90;;;;;;5104800;28;20052;-62
2022/03/06 02:28:09;;;;;;;9.20;5.60;;;1.10;99.90;;;;;;5104087;28;20046;-62
2022/03/06 02:30:40;;;;;;;8.32;4.75;;;1.10;99.90;;;;;;5095197;28;20044;-62
2022/03/06 02:33:08;;;;;;;9.40;5.40;;;1.20;99.90;;;;;;5084285;28;20052;-62
2022/03/06 02:35:35;;;;;;;13.52;4.88;;;1.10;99.90;;;;;;5084268;28;20522;-62
2022/03/06 02:38:01;;;;;;;8.20;5.88;;;1.10;99.90;;;;;;5103616;28;20056;-62
2022/03/06 02:40:27;;;;;;;10.75;6.00;;;1.10;99.90;;;;;;5104529;28;20052;-62
2022/03/06 02:42:53;;;;;;;17.90;8.00;;;1.10;99.90;;;;;;5103957;28;20145;-62
2022/03/06 02:45:22;;;;;;;7.97;5.88;;;1.10;99.90;;;;;;5104398;28;20055;-62
2022/03/06 02:47:49;;;;;;;8.98;5.40;;;1.10;99.90;;;;;;5094039;28;20468;-62
2022/03/06 02:50:17;;;;;;;7.65;4.50;;;1.10;99.90;;;;;;5104388;28;20036;-62
2022/03/06 02:52:43;;;;;;;13.20;5.72;;;1.10;99.90;;;;;;5103677;28;20048;-62
2022/03/06 02:55:11;;;;;;;9.07;4.30;;;1.10;99.90;;;;;;5104470;28;20127;-62
2022/03/06 02:57:38;;;;;;;;;;;1.10;99.90;;;;;;5087807;28;20049;-62
2022/03/06 03:00:07;;;;;;;7.90;4.55;;;1.10;99.90;;;;;;5084070;28;19927;-62
2022/03/06 03:02:34;;;;;;;12.30;5.10;;;1.10;99.90;;;;;;5083777;28;20102;-62
2022/03/06 03:05:00;;;;;;;12.50;6.35;;;1.10;99.90;;;;;;5083927;28;20058;-62
2022/03/06 03:07:26;;;;;;;8.18;5.75;;;1.10;99.90;;;;;;5097627;28;20058;-63
2022/03/06 03:09:52;;;;;;;11.38;5.78;;;1.00;99.90;;;;;;5104362;28;20032;-62
2022/03/06 03:12:18;;;;;;;12.18;5.55;;;0.90;99.90;;;;;;5103825;28;20052;-62
2022/03/06 03:14:43;;;;;;;8.52;6.05;;;0.90;99.90;;;;;;5104203;28;20039;-62
2022/03/06 03:17:09;;;;;;;8.55;4.15;;;1.00;99.90;;;;;;5091651;28;20449;-62
2022/03/06 03:19:35;;;;;;;11.52;6.28;;;1.00;99.90;;;;;;5085652;28;20041;-62
2022/03/06 03:22:01;;;;;;;9.73;5.78;;;1.00;99.90;;;;;;5087172;28;20297;-62
2022/03/06 03:24:27;;;;;;;10.25;6.32;;;1.00;99.90;;;;;;5087591;28;20041;-62
2022/03/06 03:26:53;;;;;;;14.30;5.88;;;1.00;99.90;;;;;;5096432;28;20048;-62
2022/03/06 03:29:19;;;;;;;8.57;6.05;;;1.00;99.90;;;;;;5100576;28;20083;-62
2022/03/06 03:31:45;;;;;;;12.38;5.90;;;0.90;99.90;;;;;;5087325;28;20052;-62
2022/03/06 03:34:11;;;;;;;13.73;5.90;;;0.80;99.90;;;;;;5087504;28;20055;-62
2022/03/06 03:36:36;;;;;;;13.40;6.07;;;0.80;99.90;;;;;;5093373;28;20048;-62
2022/03/06 03:39:03;;;;;;;15.27;6.80;;;0.80;99.90;;;;;;5107204;28;20056;-62
2022/03/06 03:41:29;;;;;;;8.98;6.22;;;0.80;99.90;;;;;;5107425;28;20047;-63
2022/03/06 03:43:55;;;;;;;8.85;6.32;;;0.70;99.90;;;;;;5107445;28;20168;-62
2022/03/06 03:46:21;;;;;;;10.35;5.57;;;0.70;99.90;;;;;;5102705;28;20047;-62
2022/03/06 03:48:47;;;;;;;10.38;5.50;;;0.60;99.90;;;;;;5087131;28;20096;-62
2022/03/06 03:51:14;;;;;;;17.52;7.60;;;0.60;99.90;;;;;;5086751;28;20091;-62
2022/03/06 03:53:40;;;;;;;10.80;5.85;;;0.60;99.90;;;;;;5087072;28;20045;-62
2022/03/06 03:56:05;;;;;;;11.75;6.90;;;0.50;99.90;;;;;;5088484;28;20074;-62
2022/03/06 03:58:32;;;;;;;9.48;6.95;;;0.50;99.90;;;;;;5107108;28;20566;-62
2022/03/06 04:00:58;;;;;;;9.63;5.90;;;0.50;99.90;;;;;;5107293;28;20044;-62
2022/03/06 04:03:24;;;;;;;11.68;6.60;;;0.40;99.90;;;;;;5107592;28;20050;-62
2022/03/06 04:05:50;;;;;;;15.60;6.72;;;0.40;99.90;;;;;;5105424;28;20663;-62
2022/03/06 04:08:16;;;;;;;13.50;5.85;;;0.50;99.90;;;;;;5086829;28;20048;-62
2022/03/06 04:10:42;;;;;;;9.93;6.43;;;0.40;99.90;;;;;;5086740;28;20047;-62
2022/03/06 04:13:08;;;;;;;10.57;6.00;;;0.40;99.90;;;;;;5086592;28;20442;-62
2022/03/06 04:15:34;;;;;;;13.57;5.70;;;0.40;99.90;;;;;;5086647;28;20048;-62
2022/03/06 04:17:59;;;;;;;12.60;6.35;;;0.30;99.90;;;;;;5103847;28;20055;-62
2022/03/06 04:20:25;;;;;;;13.75;6.97;;;0.30;99.90;;;;;;5106938;28;20036;-62
2022/03/06 04:22:51;;;;;;;10.35;6.65;;;0.20;99.90;;;;;;5091430;28;20173;-62
2022/03/06 04:25:17;;;;;;;9.82;6.32;;;0.20;99.90;;;;;;5086363;28;20055;-62
2022/03/06 04:27:43;;;;;;;10.52;6.75;;;0.10;99.90;;;;;;5098528;28;20044;-62
2022/03/06 04:30:10;;;;;;;12.55;6.47;;;0.10;99.90;;;;;;5105129;28;20107;-62
2022/03/06 04:32:36;;;;;;;13.35;6.55;;;0.10;99.90;;;;;;5094489;28;20055;-62
2022/03/06 04:35:02;;;;;;;10.70;6.75;;;0.00;99.90;;;;;;5086297;28;20044;-62
2022/03/06 04:37:27;;;;;;;12.95;7.47;;;0.00;99.90;;;;;;5085597;28;20061;-62
2022/03/06 04:39:53;;;;;;;9.90;6.13;;;0.00;99.90;;;;;;5086302;28;20059;-62
2022/03/06 04:42:19;;;;;;;12.95;7.38;;;-0.10;99.90;;;;;;5093662;28;20051;-62
2022/03/06 04:44:44;;;;;;;11.32;6.15;;;-0.10;99.90;;;;;;5106695;28;20040;-61
2022/03/06 04:47:10;;;;;;;10.95;6.93;;;0.00;99.90;;;;;;5105829;28;20072;-62
2022/03/06 04:49:36;;;;;;;12.70;7.22;;;-0.20;99.90;;;;;;5086121;28;20041;-62
2022/03/06 04:52:02;;;;;;;12.43;5.00;;;-0.10;99.90;;;;;;5090571;28;20066;-61
2022/03/06 04:54:28;;;;;;;8.68;5.70;;;-0.20;99.90;;;;;;5106184;28;20089;-62
2022/03/06 04:56:53;;;;;;;11.43;6.50;;;-0.20;99.90;;;;;;5105809;28;20048;-62
2022/03/06 04:59:19;;;;;;;14.10;6.95;;;-0.20;99.90;;;;;;5106466;28;20062;-62
2022/03/06 05:01:45;;;;;;;16.50;6.95;;;-0.20;99.90;;;;;;5104031;28;20045;-62
2022/03/06 05:04:11;;;;;;;12.40;7.03;;;-0.30;99.90;;;;;;5105082;28;20090;-62
2022/03/06 05:06:36;;;;;;;12.13;5.85;;;-0.30;99.90;;;;;;5105524;28;20073;-62
2022/03/06 05:09:03;;;;;;;19.20;7.05;;;-0.30;99.90;;;;;;5105981;28;20044;-62
2022/03/06 05:11:28;;;;;;;11.68;5.97;;;-0.30;99.90;;;;;;5105410;28;20503;-62
2022/03/06 05:13:54;;;;;;;15.90;6.90;;;-0.30;99.90;;;;;;5085079;28;20045;-62
2022/03/06 05:16:20;;;;;;;10.40;6.35;;;-0.30;99.90;;;;;;5090565;28;20160;-62
2022/03/06 05:18:46;;;;;;;11.07;6.50;;;-0.40;99.90;;;;;;5105919;28;20087;-62
2022/03/06 05:21:12;;;;;;;11.10;7.00;;;-0.40;99.90;;;;;;5104824;28;20081;-62
2022/03/06 05:23:38;;;;;;;10.27;5.95;;;-0.40;99.90;;;;;;5103429;28;20040;-62
2022/03/06 05:26:03;;;;;;;16.30;5.97;;;-0.50;99.90;;;;;;5105630;28;20101;-62
2022/03/06 05:28:29;;;;;;;8.70;5.75;;;-0.70;99.90;;;;;;5104901;28;20044;-62
2022/03/06 05:30:55;;;;;;;12.57;6.32;;;-0.70;99.90;;;;;;5105233;28;20046;-62
2022/03/06 05:33:20;;;;;;;9.93;6.07;;;-0.80;99.90;;;;;;5089057;28;20049;-61
2022/03/06 05:35:47;;;;;;;13.80;6.95;;;-0.90;99.90;;;;;;5085117;28;20094;-62
2022/03/06 05:38:12;;;;;;;11.95;6.47;;;-0.90;99.90;;;;;;5084382;28;20427;-62
2022/03/06 05:40:38;;;;;;;10.98;5.93;;;-1.00;99.90;;;;;;5085440;28;20104;-62
2022/03/06 05:43:04;;;;;;;15.98;6.55;;;-1.10;99.90;;;;;;5099142;28;20105;-62
2022/03/06 05:45:30;;;;;;;14.95;6.80;;;-1.10;99.90;;;;;;5105088;28;20040;-61
2022/03/06 05:47:55;;;;;;;14.13;6.93;;;-1.20;99.90;;;;;;5105122;28;20096;-62
2022/03/06 05:50:21;;;;;;;15.77;6.82;;;-1.30;99.90;;;;;;5105178;28;20032;-62
2022/03/06 05:52:48;;;;;;;14.07;7.32;;;-1.20;99.90;;;;;;5091674;28;20044;-62
2022/03/06 05:55:14;;;;;;;9.50;6.70;;;-1.20;99.90;;;;;;5084658;28;20060;-61
2022/03/06 05:57:40;;;;;;;14.73;7.82;;;-1.30;99.90;;;;;;5084329;28;20040;-62
2022/03/06 06:00:08;;;;;;;14.85;7.00;;;-1.30;99.90;;;;;;5084865;28;20044;-62
2022/03/06 06:02:37;;;;;;;;;;;-1.20;99.90;;;;;;5097102;28;20047;-62
2022/03/06 06:05:08;;;;;;;13.93;7.22;;;-1.20;99.90;;;;;;5084708;28;19920;-62
2022/03/06 06:07:34;;;;;;;14.25;6.43;;;-1.20;99.90;;;;;;5100968;28;20083;-62
2022/03/06 06:10:00;;;;;;;13.98;7.78;;;-1.20;99.90;;;;;;5104806;28;20127;-61
2022/03/06 06:12:26;;;;;;;11.63;6.78;;;-1.30;99.90;;;;;;5104467;28;20058;-62
2022/03/06 06:14:53;;;;;;;15.52;6.70;;;-1.20;99.90;;;;;;5104106;28;20032;-62
2022/03/06 06:17:19;;;;;;;8.98;5.95;;;-1.20;99.90;;;;;;5104504;28;20036;-62
2022/03/06 06:19:44;;;;;;;8.57;5.82;;;-1.10;99.90;;;;;;5104542;28;20040;-62
2022/03/06 06:22:10;;;;;;;8.70;4.70;;;-0.90;99.90;;;;;;5103017;28;20047;-62
2022/03/06 06:24:36;;;;;;;7.65;4.05;;;-0.80;99.90;;;;;;5102651;28;20036;-61
2022/03/06 06:27:02;;;;;;;8.38;4.53;;;-0.90;99.90;;;;;;5104041;28;20100;-61
2022/03/06 06:29:27;;;;;;;7.10;3.78;;;-0.80;99.90;;;;;;5104644;28;20037;-61
2022/03/06 06:31:53;;;;;;;5.38;3.95;;;-0.70;99.90;;;;;;5104579;28;20040;-61
2022/03/06 06:34:20;;;;;;;5.60;3.78;;;-0.70;99.90;;;;;;5103012;28;20071;-61
2022/03/06 06:36:46;;;;;;;6.67;3.30;;;-0.70;99.90;;;;;;5086517;28;20567;-61
2022/03/06 06:39:12;;;;;;;5.47;3.28;;;-0.80;99.90;;;;;;5084001;28;20287;-61
2022/03/06 06:41:39;;;;;;;6.85;3.22;;;-0.80;99.90;;;;;;5083932;28;20053;-62
2022/03/06 06:44:05;;;;;;;5.10;3.63;;;-0.90;99.90;;;;;;5094659;28;20040;-61
2022/03/06 06:46:31;;;;;;;5.78;3.17;;;-0.90;99.90;;;;;;5104337;28;20044;-61
2022/03/06 06:48:57;;;;;;;6.05;3.25;;;-0.90;99.90;;;;;;5104671;28;20161;-61
2022/03/06 06:51:23;;;;;;;6.05;3.30;;;-0.80;99.90;;;;;;5103313;28;20082;-61
2022/03/06 06:53:48;;;;;;;5.38;3.33;;;-0.80;99.90;;;;;;5097637;28;20093;-61
2022/03/06 06:56:14;;;;;;;6.07;3.80;;;-0.70;99.90;;;;;;5092409;28;20051;-61
2022/03/06 06:58:40;;;;;;;5.28;2.92;;;-0.70;99.90;;;;;;5108151;28;20478;-61
2022/03/06 07:01:06;;;;;;;5.68;3.20;;;-0.70;99.90;;;;;;5108300;28;20552;-61
2022/03/06 07:03:32;;;;;;;4.65;2.90;;;-0.50;99.90;;;;;;5102361;28;20040;-61
2022/03/06 07:05:58;;;;;;;7.53;3.03;;;-0.30;99.90;;;;;;5087030;28;20052;-62
2022/03/06 07:08:25;;;;;;;4.20;2.90;;;-0.40;99.90;;;;;;5088196;28;20059;-62
2022/03/06 07:10:51;;;;;;;6.53;2.65;;;-0.40;99.90;;;;;;5087825;28;20088;-62
2022/03/06 07:13:17;;;;;;;9.93;3.50;;;-0.30;99.90;;;;;;5091042;28;20044;-62
2022/03/06 07:15:43;;;;;;;2.22;2.00;;;-0.20;99.90;;;;;;5108171;28;20040;-62
2022/03/06 07:18:08;;;;;;;3.00;2.45;;;0.00;99.90;;;;;;5108040;28;20052;-62
2022/03/06 07:20:34;;;;;;;6.13;2.60;;;0.10;99.90;;;;;;5108094;28;20036;-62
2022/03/06 07:23:00;;;;;;;6.38;3.17;;;0.40;99.90;;;;;;5105650;28;20044;-61
2022/03/06 07:25:25;;;;;;;9.05;3.28;;;0.40;99.90;;;;;;5086400;28;20531;-62
2022/03/06 07:27:51;;;;;;;5.20;2.50;;;0.40;99.90;;;;;;5087304;28;20090;-62
2022/03/06 07:30:17;;;;;;;4.65;3.03;;;0.40;99.90;;;;;;5088080;28;20041;-62
2022/03/06 07:32:49;;;;;;;4.18;2.40;;;0.50;99.90;;;;;;5087338;28;20078;-62
2022/03/06 07:35:16;;;;;;;6.57;2.38;;;0.70;99.90;;;;;;5106265;28;20044;-62
2022/03/06 07:37:43;;;;;;;6.43;2.65;;;1.00;99.90;;;;;;5106942;28;20052;-62
2022/03/06 07:40:11;;;;;;;4.18;2.30;;;1.10;99.90;;;;;;5107719;28;20074;-62
2022/03/06 07:42:37;;;;;;;5.80;2.50;;;1.30;99.90;;;;;;5107161;28;20500;-62
2022/03/06 07:45:04;;;;;;;4.50;2.80;;;1.30;99.90;;;;;;5087628;28;20055;-62
2022/03/06 07:47:29;;;;;;;4.47;2.58;;;1.40;99.90;;;;;;5093034;28;20075;-62
2022/03/06 07:49:55;;;;;;;4.40;2.50;;;1.50;99.90;;;;;;5096314;28;20036;-63
2022/03/06 07:52:21;;;;;;;5.05;2.80;;;1.50;99.90;;;;;;5104016;28;20082;-62
2022/03/06 07:54:46;;;;;;;4.38;2.28;;;1.60;99.90;;;;;;5105666;28;20032;-62
2022/03/06 07:57:12;;;;;;;3.38;2.30;;;1.70;99.90;;;;;;5106222;28;20052;-62
2022/03/06 07:59:38;;;;;;;7.80;2.58;;;1.70;99.90;;;;;;5106722;28;20055;-62
2022/03/06 08:02:04;;;;;;;6.70;2.40;;;1.80;99.90;;;;;;5107311;28;20069;-62
2022/03/06 08:04:30;;;;;;;5.85;2.65;;;1.90;99.90;;;;;;5101991;28;20119;-63
2022/03/06 08:06:55;;;;;;;3.63;2.15;;;2.00;99.90;;;;;;5100148;28;20055;-62
2022/03/06 08:09:24;;;;;;;8.80;2.70;;;2.10;99.90;;;;;;5101743;28;20036;-62
2022/03/06 08:11:50;;;;;;;3.05;2.22;;;2.10;99.90;;;;;;5105983;28;20139;-63
2022/03/06 08:14:16;;;;;;;4.00;2.88;;;2.20;99.90;;;;;;5095742;28;20052;-62
2022/03/06 08:16:42;;;;;;;4.35;2.53;;;2.20;99.90;;;;;;5098931;28;20036;-63
2022/03/06 08:19:07;;;;;;;4.28;2.00;;;2.30;99.90;;;;;;5101425;28;20103;-63
2022/03/06 08:21:33;;;;;;;2.95;1.95;;;2.40;99.90;;;;;;5103339;28;20043;-64
2022/03/06 08:23:59;;;;;;;3.83;2.30;;;2.40;99.90;;;;;;5098781;28;20056;-63
2022/03/06 08:26:25;;;;;;;5.15;1.90;;;2.40;99.90;;;;;;5101127;28;20032;-63
2022/03/06 08:28:51;;;;;;;3.80;2.08;;;2.40;99.90;;;;;;5103740;28;20070;-62
2022/03/06 08:31:17;;;;;;;3.58;2.28;;;2.50;99.90;;;;;;5106461;28;20035;-63
2022/03/06 08:33:43;;;;;;;6.35;2.28;;;2.60;99.90;;;;;;5104650;28;20040;-63
2022/03/06 08:36:09;;;;;;;7.05;2.72;;;2.80;99.90;;;;;;5100312;28;20040;-62
2022/03/06 08:38:34;;;;;;;5.75;2.72;;;2.80;99.90;;;;;;5089067;28;20066;-63
2022/03/06 08:41:00;;;;;;;4.20;2.53;;;2.80;99.70;;;;;;5092112;28;20377;-63
2022/03/06 08:43:26;;;;;;;5.15;2.40;;;2.80;99.30;;;;;;5089748;28;20063;-63
2022/03/06 08:45:51;;;;;;;3.00;1.92;;;2.90;99.10;;;;;;5094044;28;20063;-63
2022/03/06 08:48:17;;;;;;;3.70;1.45;;;3.00;98.60;;;;;;5105510;28;20040;-62
2022/03/06 08:50:43;;;;;;;5.68;2.50;;;3.20;97.70;;;;;;5106100;28;20044;-64
2022/03/06 08:53:08;;;;;;;4.85;2.80;;;3.20;97.70;;;;;;5095392;28;20051;-63
2022/03/06 08:55:34;;;;;;;3.15;1.90;;;3.40;97.60;;;;;;5086376;28;20055;-63
2022/03/06 08:58:00;;;;;;;4.07;2.15;;;3.40;96.80;;;;;;5095142;28;20071;-63
2022/03/06 09:00:26;;;;;;;6.65;2.53;;;3.50;97.30;;;;;;5090129;28;20132;-63
2022/03/06 09:02:51;;;;;;;3.65;2.13;;;3.60;96.20;;;;;;5090183;28;20047;-62
2022/03/06 09:05:20;;;;;;;5.07;2.47;;;3.60;95.30;;;;;;5099786;28;20040;-63
2022/03/06 09:07:46;;;;;;;4.50;1.70;;;3.70;95.30;;;;;;5099511;28;20092;-63
2022/03/06 09:10:12;;;;;;;4.45;2.08;;;3.80;95.00;;;;;;5085387;28;20090;-64
2022/03/06 09:12:39;;;;;;;4.63;2.65;;;4.00;96.30;;;;;;5087528;28;20036;-64
2022/03/06 09:15:06;;;;;;;4.07;1.67;;;4.30;96.20;;;;;;5101757;28;20048;-63
2022/03/06 09:17:32;;;;;;;4.80;2.13;;;4.10;93.70;;;;;;5099481;28;20044;-62
2022/03/06 09:19:57;;;;;;;4.22;2.25;;;3.90;93.60;;;;;;5096871;28;20056;-63
2022/03/06 09:22:23;;;;;;;5.25;2.75;;;4.10;93.80;;;;;;5083967;28;20044;-63
2022/03/06 09:24:49;;;;;;;6.78;2.38;;;4.00;93.50;;;;;;5099076;28;20063;-64
2022/03/06 09:27:15;;;;;;;8.73;2.08;;;3.70;93.40;;;;;;5092533;28;20036;-63
2022/03/06 09:29:41;;;;;;;5.53;2.28;;;3.80;94.20;;;;;;5099136;28;20032;-63
2022/03/06 09:32:07;;;;;;;5.75;2.42;;;3.80;93.20;;;;;;5094069;28;20059;-62
2022/03/06 09:34:32;;;;;;;7.95;2.78;;;3.90;93.00;;;;;;5093643;28;20586;-64
2022/03/06 09:36:58;;;;;;;6.05;2.50;;;3.90;93.20;;;;;;5103579;28;20051;-63
2022/03/06 09:39:24;;;;;;;8.27;2.53;;;4.20;92.90;;;;;;5093201;28;20510;-63
2022/03/06 09:41:54;;;;;;;2.53;1.90;;;4.10;92.10;;;;;;5100617;28;20060;-62
2022/03/06 09:44:23;;;;;;;3.00;2.15;;;4.00;92.50;;;;;;5095172;28;20378;-62
2022/03/06 09:46:52;;;;;;;5.63;2.50;;;4.10;92.20;;;;;;5104752;28;20036;-62
2022/03/06 09:49:18;;;;;;;5.65;2.78;;;4.20;92.00;;;;;;5095335;28;20044;-63
2022/03/06 09:51:44;;;;;;;6.05;2.72;;;3.90;91.60;;;;;;5083794;28;20064;-63
2022/03/06 09:54:12;;;;;;;8.23;2.70;;;4.30;92.70;;;;;;5086363;28;20044;-63
2022/03/06 09:56:38;;;;;;;;;;;4.40;92.00;;;;;;5103545;28;20043;-63
2022/03/06 09:59:04;;;;;;;4.43;1.67;;;4.50;91.70;;;;;;5104105;28;19920;-63
2022/03/06 10:01:30;;;;;;;5.32;3.00;;;4.30;91.30;;;;;;5102897;28;20047;-63
2022/03/06 10:03:56;;;;;;;8.40;2.08;;;4.00;91.60;;;;;;5103153;28;20073;-63
2022/03/06 10:06:23;;;;;;;3.78;2.47;;;3.90;91.70;;;;;;5103145;28;20059;-63
2022/03/06 10:09:05;;;;;;;4.15;2.20;;;4.00;92.10;;;;;;5099788;28;20484;-63
2022/03/06 10:11:31;;;;;;;3.38;2.22;;;3.80;92.50;;;;;;5097102;28;20108;-63
2022/03/06 10:13:56;;;;;;;6.05;2.45;;;3.70;93.10;;;;;;5102648;28;20480;-62
2022/03/06 10:16:23;;;;;;;5.82;2.40;;;3.80;93.30;;;;;;5104027;28;20043;-64
2022/03/06 10:18:52;;;;;;;3.72;2.00;;;4.10;92.90;;;;;;5084359;28;20123;-63
2022/03/06 10:21:21;;;;;;;6.28;2.15;;;4.10;93.00;;;;;;5086257;28;20071;-63
2022/03/06 10:23:50;;;;;;;4.28;2.10;;;4.20;93.50;;;;;;5091728;28;20095;-64
2022/03/06 10:26:20;;;;;;;2.80;2.25;;;4.50;93.10;;;;;;5104504;28;20071;-63
2022/03/06 10:28:49;;;;;;;6.97;2.65;;;4.70;92.30;;;;;;5099454;28;20045;-64
2022/03/06 10:31:16;;;;;;;6.28;1.70;;;4.60;91.80;;;;;;5103518;28;20052;-65
2022/03/06 10:33:57;;;;;;;4.10;2.33;;;4.30;92.00;;;;;;5103155;28;20044;-64
2022/03/06 10:36:30;;;;;;;6.93;2.58;;;4.30;92.70;;;;;;5103623;28;20404;-64
2022/03/06 10:38:57;;;;;;;4.65;2.30;;;4.50;92.90;;;;;;5099502;28;20048;-63
2022/03/06 10:41:22;;;;;;;6.38;2.63;;;4.50;93.00;;;;;;5088597;28;20044;-64
2022/03/06 10:43:49;;;;;;;4.25;2.45;;;4.50;93.30;;;;;;5084935;28;20044;-64
2022/03/06 10:46:21;;;;;;;5.07;2.00;;;4.50;93.00;;;;;;5083786;28;20091;-64
2022/03/06 10:48:53;;;;;;;2.58;2.05;;;4.80;93.00;;;;;;5085067;28;20043;-64
2022/03/06 10:51:19;;;;;;;3.00;1.80;;;4.70;92.60;;;;;;5083317;28;20055;-64
2022/03/06 10:53:54;;;;;;;6.10;2.60;;;4.70;92.80;;;;;;5084254;28;20044;-64
2022/03/06 10:56:20;;;;;;;4.78;2.55;;;4.90;93.00;;;;;;5083863;28;20083;-64
2022/03/06 10:58:46;;;;;;;3.72;2.40;;;4.90;92.50;;;;;;5088492;28;20040;-64
2022/03/06 11:01:13;;;;;;;4.57;2.50;;;4.80;92.90;;;;;;5091378;28;20052;-64
2022/03/06 11:03:40;;;;;;;5.07;2.35;;;4.90;93.10;;;;;;5092911;28;20070;-63
2022/03/06 11:06:09;;;;;;;3.28;2.38;;;5.50;92.60;;;;;;5102509;28;20104;-64
2022/03/06 11:08:36;;;;;;;5.88;2.60;;;5.10;92.60;;;;;;5104030;28;20123;-64
2022/03/06 11:11:08;;;;;;;2.53;2.07;;;5.10;93.30;;;;;;5093812;28;20404;-64
2022/03/06 11:13:34;;;;;;;7.50;2.80;;;5.10;93.00;;;;;;5082933;28;20327;-64
2022/03/06 11:16:01;;;;;;;2.75;2.15;;;5.30;92.80;;;;;;5095399;28;20440;-64
2022/03/06 11:18:29;;;;;;;4.65;2.15;;;5.50;92.60;;;;;;5101667;28;20072;-63
2022/03/06 11:20:56;;;;;;;5.28;2.55;;;5.40;92.70;;;;;;5091677;28;20044;-65
2022/03/06 11:23:34;;;;;;;;;;;5.80;92.90;;;;;;5091893;28;20064;-63
2022/03/06 11:26:09;;;;;;;7.82;2.55;;;6.20;92.50;;;;;;5103133;28;19924;-65
2022/03/06 11:28:50;;;;;;;5.68;2.45;;;6.20;91.90;;;;;;5102191;28;20040;-65
2022/03/06 11:31:17;;;;;;;3.03;2.47;;;6.20;91.30;;;;;;5095080;28;20496;-64
2022/03/06 11:33:52;;;;;;;4.82;2.20;;;6.00;90.90;;;;;;5102146;28;20101;-63
2022/03/06 11:36:21;;;;;;;6.30;2.80;;;6.20;91.20;;;;;;5098100;28;20135;-63
2022/03/06 11:38:49;;;;;;;6.85;3.20;;;6.00;91.30;;;;;;5099355;28;20075;-63
2022/03/06 11:41:15;;;;;;;7.07;2.40;;;6.10;91.90;;;;;;5106330;28;20074;-63
2022/03/06 11:43:48;;;;;;;4.43;2.60;;;5.90;90.90;;;;;;5107166;28;20130;-64
2022/03/06 11:46:20;;;;;;;7.95;3.35;;;5.90;91.00;;;;;;5107084;28;20070;-65
2022/03/06 11:48:49;;;;;;;4.07;2.67;;;6.10;91.20;;;;;;5106909;28;20044;-64
2022/03/06 11:51:14;;;;;;;5.45;2.65;;;6.40;91.50;;;;;;5106580;28;20059;-65
2022/03/06 11:53:55;;;;;;;4.65;2.28;;;6.10;91.50;;;;;;5103870;28;20048;-65
2022/03/06 11:56:33;;;;;;;5.63;2.83;;;6.00;91.50;;;;;;5096613;28;20500;-64
2022/03/06 11:59:00;;;;;;;6.82;2.90;;;6.10;91.80;;;;;;5099684;28;20052;-65
2022/03/06 12:01:33;;;;;;;5.45;2.45;;;5.90;92.30;;;;;;5092926;28;20476;-64
2022/03/06 12:04:21;;;;;;;4.57;2.22;;;5.90;91.90;;;;;;5095144;28;20040;-64
2022/03/06 12:06:53;;;;;;;8.70;2.40;;;5.80;92.00;;;;;;5092063;28;20040;-64
2022/03/06 12:09:21;;;;;;;5.78;2.28;;;5.80;92.20;;;;;;5099155;28;20068;-64
2022/03/06 12:11:49;;;;;;;4.93;2.28;;;5.70;92.00;;;;;;5093841;28;20067;-64
2022/03/06 12:14:18;;;;;;;6.15;2.28;;;5.90;92.20;;;;;;5088252;28;20404;-64
2022/03/06 12:17:07;;;;;;;3.88;1.80;;;5.90;92.80;;;;;;5086223;28;20066;-64
2022/03/06 12:19:45;;;;;;;4.30;2.00;;;6.30;93.50;;;;;;5091406;28;20058;-64
2022/03/06 12:22:12;;;;;;;5.32;2.40;;;6.10;92.20;;;;;;5100753;28;20482;-64
2022/03/06 12:24:39;;;;;;;2.13;1.70;;;6.50;92.60;;;;;;5106739;28;20055;-65
2022/03/06 12:27:24;;;;;;;4.65;2.47;;;6.50;91.70;;;;;;5104615;28;20063;-64
2022/03/06 12:29:53;;;;;;;7.25;2.20;;;6.50;92.00;;;;;;5095904;28;20040;-64
2022/03/06 12:32:24;;;;;;;6.57;2.28;;;6.20;91.90;;;;;;5098604;28;20048;-64
2022/03/06 12:35:00;;;;;;;6.35;2.90;;;6.10;92.30;;;;;;5101191;28;20050;-64
2022/03/06 12:37:31;;;;;;;3.60;2.03;;;6.20;92.30;;;;;;5103374;28;20048;-65
2022/03/06 12:39:58;;;;;;;4.57;2.40;;;6.10;92.20;;;;;;5105846;28;20059;-65
2022/03/06 12:42:28;;;;;;;4.68;2.65;;;6.20;93.20;;;;;;5103615;28;20039;-64
2022/03/06 12:45:06;;;;;;;4.47;2.55;;;6.20;92.90;;;;;;5105477;28;20055;-64
2022/03/06 12:47:33;;;;;;;4.85;2.50;;;6.50;92.50;;;;;;5090864;28;20093;-64
2022/03/06 12:49:59;;;;;;;8.07;2.47;;;6.80;92.00;;;;;;5096565;28;20051;-64
2022/03/06 12:52:27;;;;;;;2.97;2.03;;;6.60;92.40;;;;;;5102867;28;20514;-64